sensor_id;sensor_type;location;lat;lon;timestamp;P1;durP1;ratioP1;P2;durP2;ratioP2
55527;SDS011;52818;43.308;21.916;2024-03-22T00:01:48;20.20;;;12.90;;
55527;SDS011;52818;43.308;21.916;2024-03-22T00:03:48;20.50;;;13.20;;
55527;SDS011;52818;43.308;21.916;2024-03-22T00:05:48;23.60;;;15.00;;
55527;SDS011;52818;43.308;21.916;2024-03-22T00:07:48;19.90;;;13.10;;
55527;SDS011;52818;43.308;21.916;2024-03-22T00:09:48;24.80;;;15.10;;
55527;SDS011;52818;43.308;21.916;2024-03-22T00:11:48;23.70;;;14.60;;
55527;SDS011;52818;43.308;21.916;2024-03-22T00:13:49;24.10;;;15.50;;
55527;SDS011;52818;43.308;21.916;2024-03-22T00:15:49;21.00;;;14.00;;
55527;SDS011;52818;43.308;21.916;2024-03-22T00:17:49;20.60;;;13.50;;
55527;SDS011;52818;43.308;21.916;2024-03-22T00:19:49;20.10;;;14.00;;
55527;SDS011;52818;43.308;21.916;2024-03-22T00:21:49;21.80;;;13.40;;
55527;SDS011;52818;43.308;21.916;2024-03-22T00:23:49;21.20;;;14.30;;
55527;SDS011;52818;43.308;21.916;2024-03-22T00:25:49;20.10;;;13.40;;
55527;SDS011;52818;43.308;21.916;2024-03-22T00:27:49;24.50;;;15.10;;
55527;SDS011;52818;43.308;21.916;2024-03-22T00:29:49;25.10;;;16.00;;
55527;SDS011;52818;43.308;21.916;2024-03-22T00:31:49;23.20;;;14.30;;
55527;SDS011;52818;43.308;21.916;2024-03-22T00:33:50;22.10;;;14.20;;
55527;SDS011;52818;43.308;21.916;2024-03-22T00:35:51;21.10;;;13.90;;
55527;SDS011;52818;43.308;21.916;2024-03-22T00:37:50;18.20;;;13.30;;
55527;SDS011;52818;43.308;21.916;2024-03-22T00:39:50;19.30;;;13.20;;
55527;SDS011;52818;43.308;21.916;2024-03-22T00:41:50;19.00;;;12.40;;
55527;SDS011;52818;43.308;21.916;2024-03-22T00:43:50;19.50;;;13.50;;
55527;SDS011;52818;43.308;21.916;2024-03-22T00:45:50;21.00;;;14.50;;
55527;SDS011;52818;43.308;21.916;2024-03-22T00:47:50;21.80;;;14.70;;
55527;SDS011;52818;43.308;21.916;2024-03-22T00:49:50;20.10;;;14.00;;
55527;SDS011;52818;43.308;21.916;2024-03-22T00:51:51;22.40;;;;;
55527;SDS011;52818;43.308;21.916;2024-03-22T00:53:51;23.80;;;15.80;;
55527;SDS011;52818;43.308;21.916;2024-03-22T00:55:51;23.50;;;15.20;;
55527;SDS011;52818;43.308;21.916;2024-03-22T00:57:51;21.50;;;14.50;;
55527;SDS011;52818;43.308;21.916;2024-03-22T00:59:51;27.20;;;16.70;;
55527;SDS011;52818;43.308;21.916;2024-03-22T01:01:51;17.70;;;12.10;;
55527;SDS011;52818;43.308;21.916;2024-03-22T01:03:51;18.40;;;11.80;;
55527;SDS011;52818;43.308;21.916;2024-03-22T01:05:51;18.70;;;12.50;;
55527;SDS011;52818;43.308;21.916;2024-03-22T01:07:51;17.00;;;11.00;;
55527;SDS011;52818;43.308;21.916;2024-03-22T01:09:51;17.70;;;11.30;;
55527;SDS011;52818;43.308;21.916;2024-03-22T01:11:52;17.90;;;11.90;;
55527;SDS011;52818;43.308;21.916;2024-03-22T01:13:52;20.00;;;14.00;;
55527;SDS011;52818;43.308;21.916;2024-03-22T01:15:52;19.70;;;12.70;;
55527;SDS011;52818;43.308;21.916;2024-03-22T01:17:52;17.20;;;11.80;;
55527;SDS011;52818;43.308;21.916;2024-03-22T01:19:52;16.30;;;11.40;;
55527;SDS011;52818;43.308;21.916;2024-03-22T01:21:52;17.80;;;12.50;;
55527;SDS011;52818;43.308;21.916;2024-03-22T01:23:52;19.00;;;11.80;;
55527;SDS011;52818;43.308;21.916;2024-03-22T01:25:52;16.40;;;11.20;;
55527;SDS011;52818;43.308;21.916;2024-03-22T01:27:52;17.10;;;11.60;;
55527;SDS011;52818;43.308;21.916;2024-03-22T01:29:52;18.80;;;11.10;;
55527;SDS011;52818;43.308;21.916;2024-03-22T01:31:53;20.30;;;12.70;;
55527;SDS011;52818;43.308;21.916;2024-03-22T01:33:52;20.20;;;14.30;;
55527;SDS011;52818;43.308;21.916;2024-03-22T01:35:53;21.00;;;14.00;;
55527;SDS011;52818;43.308;21.916;2024-03-22T01:37:53;18.10;;;11.70;;
55527;SDS011;52818;43.308;21.916;2024-03-22T01:39:53;17.20;;;11.40;;
55527;SDS011;52818;43.308;21.916;2024-03-22T01:41:54;17.30;;;11.60;;
55527;SDS011;52818;43.308;21.916;2024-03-22T01:43:53;18.10;;;11.50;;
55527;SDS011;52818;43.308;21.916;2024-03-22T01:45:53;17.80;;;11.10;;
55527;SDS011;52818;43.308;21.916;2024-03-22T01:47:53;16.30;;;11.30;;
55527;SDS011;52818;43.308;21.916;2024-03-22T01:49:53;17.70;;;12.50;;
55527;SDS011;52818;43.308;21.916;2024-03-22T01:51:53;21.40;;;13.10;;
55527;SDS011;52818;43.308;21.916;2024-03-22T01:53:54;20.60;;;13.70;;
55527;SDS011;52818;43.308;21.916;2024-03-22T01:55:54;19.40;;;13.30;;
55527;SDS011;52818;43.308;21.916;2024-03-22T01:57:54;18.80;;;12.80;;
55527;SDS011;52818;43.308;21.916;2024-03-22T01:59:54;20.30;;;;;
55527;SDS011;52818;43.308;21.916;2024-03-22T02:01:54;22.20;;;13.30;;
55527;SDS011;52818;43.308;21.916;2024-03-22T02:03:54;20.90;;;12.60;;
55527;SDS011;52818;43.308;21.916;2024-03-22T02:05:54;17.10;;;11.10;;
55527;SDS011;52818;43.308;21.916;2024-03-22T02:07:54;16.50;;;11.40;;
55527;SDS011;52818;43.308;21.916;2024-03-22T02:09:54;17.90;;;12.00;;
55527;SDS011;52818;43.308;21.916;2024-03-22T02:11:54;18.00;;;;;
55527;SDS011;52818;43.308;21.916;2024-03-22T02:13:54;18.80;;;;;
55527;SDS011;52818;43.308;21.916;2024-03-22T02:15:55;17.80;;;11.40;;
55527;SDS011;52818;43.308;21.916;2024-03-22T02:17:55;17.10;;;11.60;;
55527;SDS011;52818;43.308;21.916;2024-03-22T02:19:55;16.80;;;11.50;;
55527;SDS011;52818;43.308;21.916;2024-03-22T02:21:55;17.40;;;10.90;;
55527;SDS011;52818;43.308;21.916;2024-03-22T02:23:55;16.70;;;;;
55527;SDS011;52818;43.308;21.916;2024-03-22T02:25:55;20.20;;;12.10;;
55527;SDS011;52818;43.308;21.916;2024-03-22T02:27:55;20.00;;;12.30;;
55527;SDS011;52818;43.308;21.916;2024-03-22T02:29:55;20.40;;;13.10;;
55527;SDS011;52818;43.308;21.916;2024-03-22T02:31:55;18.00;;;11.60;;
55527;SDS011;52818;43.308;21.916;2024-03-22T02:33:55;16.00;;;10.00;;
55527;SDS011;52818;43.308;21.916;2024-03-22T02:35:56;13.60;;;9.90;;
55527;SDS011;52818;43.308;21.916;2024-03-22T02:37:56;14.70;;;9.80;;
55527;SDS011;52818;43.308;21.916;2024-03-22T02:39:56;15.60;;;10.40;;
55527;SDS011;52818;43.308;21.916;2024-03-22T02:41:56;16.40;;;;;
55527;SDS011;52818;43.308;21.916;2024-03-22T02:43:56;16.00;;;9.90;;
55527;SDS011;52818;43.308;21.916;2024-03-22T02:45:56;14.00;;;9.70;;
55527;SDS011;52818;43.308;21.916;2024-03-22T02:47:56;13.50;;;9.50;;
55527;SDS011;52818;43.308;21.916;2024-03-22T02:49:56;16.20;;;10.30;;
55527;SDS011;52818;43.308;21.916;2024-03-22T02:51:56;;;;11.30;;
55527;SDS011;52818;43.308;21.916;2024-03-22T02:53:56;;;;10.50;;
55527;SDS011;52818;43.308;21.916;2024-03-22T02:55:59;20.00;;;11.50;;
55527;SDS011;52818;43.308;21.916;2024-03-22T02:57:57;19.60;;;11.60;;
55527;SDS011;52818;43.308;21.916;2024-03-22T02:59:57;21.00;;;11.80;;
55527;SDS011;52818;43.308;21.916;2024-03-22T03:01:57;18.80;;;12.20;;
55527;SDS011;52818;43.308;21.916;2024-03-22T03:03:57;17.80;;;11.60;;
55527;SDS011;52818;43.308;21.916;2024-03-22T03:05:57;17.60;;;11.30;;
55527;SDS011;52818;43.308;21.916;2024-03-22T03:07:57;24.30;;;14.90;;
55527;SDS011;52818;43.308;21.916;2024-03-22T03:09:57;25.00;;;14.60;;
55527;SDS011;52818;43.308;21.916;2024-03-22T03:11:57;22.40;;;13.40;;
55527;SDS011;52818;43.308;21.916;2024-03-22T03:13:57;21.60;;;12.30;;
55527;SDS011;52818;43.308;21.916;2024-03-22T03:15:57;21.00;;;13.10;;
55527;SDS011;52818;43.308;21.916;2024-03-22T03:17:57;22.20;;;13.60;;
55527;SDS011;52818;43.308;21.916;2024-03-22T03:19:58;22.70;;;14.20;;
55527;SDS011;52818;43.308;21.916;2024-03-22T03:21:58;24.70;;;15.40;;
55527;SDS011;52818;43.308;21.916;2024-03-22T03:23:58;24.50;;;15.10;;
55527;SDS011;52818;43.308;21.916;2024-03-22T03:25:58;25.70;;;14.70;;
55527;SDS011;52818;43.308;21.916;2024-03-22T03:27:58;28.20;;;16.90;;
55527;SDS011;52818;43.308;21.916;2024-03-22T03:29:58;24.20;;;13.70;;
55527;SDS011;52818;43.308;21.916;2024-03-22T03:31:58;20.80;;;12.80;;
55527;SDS011;52818;43.308;21.916;2024-03-22T03:33:58;20.20;;;12.60;;
55527;SDS011;52818;43.308;21.916;2024-03-22T03:35:58;19.90;;;12.20;;
55527;SDS011;52818;43.308;21.916;2024-03-22T03:37:58;20.00;;;13.50;;
55527;SDS011;52818;43.308;21.916;2024-03-22T03:39:58;21.30;;;14.10;;
55527;SDS011;52818;43.308;21.916;2024-03-22T03:41:59;22.20;;;14.60;;
55527;SDS011;52818;43.308;21.916;2024-03-22T03:43:59;25.90;;;16.30;;
55527;SDS011;52818;43.308;21.916;2024-03-22T03:45:59;20.70;;;14.00;;
55527;SDS011;52818;43.308;21.916;2024-03-22T03:47:59;23.20;;;14.60;;
55527;SDS011;52818;43.308;21.916;2024-03-22T03:49:59;24.90;;;15.30;;
55527;SDS011;52818;43.308;21.916;2024-03-22T03:51:59;;;;15.50;;
55527;SDS011;52818;43.308;21.916;2024-03-22T03:53:59;25.50;;;;;
55527;SDS011;52818;43.308;21.916;2024-03-22T03:55:59;25.20;;;15.80;;
55527;SDS011;52818;43.308;21.916;2024-03-22T03:57:59;22.80;;;14.00;;
55527;SDS011;52818;43.308;21.916;2024-03-22T04:00:00;;;;13.70;;
55527;SDS011;52818;43.308;21.916;2024-03-22T04:01:59;21.60;;;14.00;;
55527;SDS011;52818;43.308;21.916;2024-03-22T04:04:00;21.20;;;14.20;;
55527;SDS011;52818;43.308;21.916;2024-03-22T04:06:00;22.00;;;;;
55527;SDS011;52818;43.308;21.916;2024-03-22T04:08:00;22.90;;;14.90;;
55527;SDS011;52818;43.308;21.916;2024-03-22T04:10:00;24.20;;;15.70;;
55527;SDS011;52818;43.308;21.916;2024-03-22T04:12:00;31.40;;;20.90;;
55527;SDS011;52818;43.308;21.916;2024-03-22T04:14:00;35.70;;;22.60;;
55527;SDS011;52818;43.308;21.916;2024-03-22T04:16:00;34.00;;;20.80;;
55527;SDS011;52818;43.308;21.916;2024-03-22T04:18:00;34.10;;;21.40;;
55527;SDS011;52818;43.308;21.916;2024-03-22T04:20:00;36.30;;;23.20;;
55527;SDS011;52818;43.308;21.916;2024-03-22T04:22:00;34.00;;;21.80;;
55527;SDS011;52818;43.308;21.916;2024-03-22T04:24:00;30.80;;;19.50;;
55527;SDS011;52818;43.308;21.916;2024-03-22T04:26:01;25.90;;;16.50;;
55527;SDS011;52818;43.308;21.916;2024-03-22T04:28:01;19.60;;;13.00;;
55527;SDS011;52818;43.308;21.916;2024-03-22T04:30:01;19.00;;;11.80;;
55527;SDS011;52818;43.308;21.916;2024-03-22T04:32:01;15.10;;;10.90;;
55527;SDS011;52818;43.308;21.916;2024-03-22T04:34:02;15.00;;;10.00;;
55527;SDS011;52818;43.308;21.916;2024-03-22T04:36:01;12.40;;;9.10;;
55527;SDS011;52818;43.308;21.916;2024-03-22T04:38:01;16.80;;;10.10;;
55527;SDS011;52818;43.308;21.916;2024-03-22T04:40:01;17.00;;;9.40;;
55527;SDS011;52818;43.308;21.916;2024-03-22T04:42:01;14.40;;;9.30;;
55527;SDS011;52818;43.308;21.916;2024-03-22T04:44:01;14.20;;;9.50;;
55527;SDS011;52818;43.308;21.916;2024-03-22T04:46:01;14.50;;;9.40;;
55527;SDS011;52818;43.308;21.916;2024-03-22T04:48:03;13.40;;;9.70;;
55527;SDS011;52818;43.308;21.916;2024-03-22T04:50:02;15.80;;;9.20;;
55527;SDS011;52818;43.308;21.916;2024-03-22T04:52:02;14.20;;;9.60;;
55527;SDS011;52818;43.308;21.916;2024-03-22T04:54:02;17.90;;;11.10;;
55527;SDS011;52818;43.308;21.916;2024-03-22T04:56:02;15.60;;;9.90;;
55527;SDS011;52818;43.308;21.916;2024-03-22T04:58:02;20.60;;;13.30;;
55527;SDS011;52818;43.308;21.916;2024-03-22T05:00:02;28.80;;;16.60;;
55527;SDS011;52818;43.308;21.916;2024-03-22T05:02:02;25.20;;;15.40;;
55527;SDS011;52818;43.308;21.916;2024-03-22T05:04:02;38.10;;;21.30;;
55527;SDS011;52818;43.308;21.916;2024-03-22T05:06:03;31.10;;;16.60;;
55527;SDS011;52818;43.308;21.916;2024-03-22T05:08:03;26.70;;;15.90;;
55527;SDS011;52818;43.308;21.916;2024-03-22T05:10:03;27.70;;;16.40;;
55527;SDS011;52818;43.308;21.916;2024-03-22T05:12:03;32.40;;;17.30;;
55527;SDS011;52818;43.308;21.916;2024-03-22T05:14:03;25.80;;;16.10;;
55527;SDS011;52818;43.308;21.916;2024-03-22T05:16:03;20.80;;;13.30;;
55527;SDS011;52818;43.308;21.916;2024-03-22T05:18:03;19.70;;;13.40;;
55527;SDS011;52818;43.308;21.916;2024-03-22T05:20:03;21.20;;;15.50;;
55527;SDS011;52818;43.308;21.916;2024-03-22T05:22:03;24.60;;;16.80;;
55527;SDS011;52818;43.308;21.916;2024-03-22T05:24:03;25.00;;;17.80;;
55527;SDS011;52818;43.308;21.916;2024-03-22T05:26:03;27.40;;;17.30;;
55527;SDS011;52818;43.308;21.916;2024-03-22T05:28:03;26.10;;;19.10;;
55527;SDS011;52818;43.308;21.916;2024-03-22T05:30:03;53.00;;;29.40;;
55527;SDS011;52818;43.308;21.916;2024-03-22T05:32:04;51.70;;;30.30;;
55527;SDS011;52818;43.308;21.916;2024-03-22T05:34:04;42.60;;;27.30;;
55527;SDS011;52818;43.308;21.916;2024-03-22T05:36:04;44.20;;;28.20;;
55527;SDS011;52818;43.308;21.916;2024-03-22T05:38:04;41.40;;;28.10;;
55527;SDS011;52818;43.308;21.916;2024-03-22T05:40:04;37.00;;;24.30;;
55527;SDS011;52818;43.308;21.916;2024-03-22T05:42:04;33.30;;;21.10;;
55527;SDS011;52818;43.308;21.916;2024-03-22T05:44:04;30.60;;;18.70;;
55527;SDS011;52818;43.308;21.916;2024-03-22T05:46:04;27.80;;;18.40;;
55527;SDS011;52818;43.308;21.916;2024-03-22T05:48:04;25.50;;;17.40;;
55527;SDS011;52818;43.308;21.916;2024-03-22T05:50:05;24.50;;;17.10;;
55527;SDS011;52818;43.308;21.916;2024-03-22T05:52:05;21.80;;;15.40;;
55527;SDS011;52818;43.308;21.916;2024-03-22T05:54:04;23.40;;;16.40;;
55527;SDS011;52818;43.308;21.916;2024-03-22T05:56:05;28.80;;;18.50;;
55527;SDS011;52818;43.308;21.916;2024-03-22T05:58:05;27.90;;;18.80;;
55527;SDS011;52818;43.308;21.916;2024-03-22T06:00:05;33.90;;;21.70;;
55527;SDS011;52818;43.308;21.916;2024-03-22T06:02:05;36.80;;;23.60;;
55527;SDS011;52818;43.308;21.916;2024-03-22T06:04:05;36.70;;;23.80;;
55527;SDS011;52818;43.308;21.916;2024-03-22T06:06:35;31.40;;;21.70;;
55527;SDS011;52818;43.308;21.916;2024-03-22T06:08:35;36.70;;;24.00;;
55527;SDS011;52818;43.308;21.916;2024-03-22T06:10:35;75.10;;;40.80;;
55527;SDS011;52818;43.308;21.916;2024-03-22T06:12:35;53.30;;;31.70;;
55527;SDS011;52818;43.308;21.916;2024-03-22T06:14:35;54.00;;;31.30;;
55527;SDS011;52818;43.308;21.916;2024-03-22T06:16:36;51.40;;;33.80;;
55527;SDS011;52818;43.308;21.916;2024-03-22T06:18:36;56.00;;;35.20;;
55527;SDS011;52818;43.308;21.916;2024-03-22T06:20:36;56.80;;;35.30;;
55527;SDS011;52818;43.308;21.916;2024-03-22T06:22:36;53.10;;;34.10;;
55527;SDS011;52818;43.308;21.916;2024-03-22T06:24:36;51.30;;;32.50;;
55527;SDS011;52818;43.308;21.916;2024-03-22T06:26:36;47.60;;;31.70;;
55527;SDS011;52818;43.308;21.916;2024-03-22T06:28:36;52.00;;;31.50;;
55527;SDS011;52818;43.308;21.916;2024-03-22T06:30:36;48.60;;;31.40;;
55527;SDS011;52818;43.308;21.916;2024-03-22T06:32:37;47.30;;;31.50;;
55527;SDS011;52818;43.308;21.916;2024-03-22T06:34:37;48.90;;;;;
55527;SDS011;52818;43.308;21.916;2024-03-22T06:36:37;51.20;;;32.00;;
55527;SDS011;52818;43.308;21.916;2024-03-22T06:40:37;53.80;;;32.20;;
55527;SDS011;52818;43.308;21.916;2024-03-22T06:42:37;53.20;;;32.00;;
55527;SDS011;52818;43.308;21.916;2024-03-22T06:44:37;51.20;;;31.80;;
55527;SDS011;52818;43.308;21.916;2024-03-22T06:46:37;49.00;;;30.60;;
55527;SDS011;52818;43.308;21.916;2024-03-22T06:48:37;49.90;;;29.00;;
55527;SDS011;52818;43.308;21.916;2024-03-22T06:50:37;37.30;;;23.00;;
55527;SDS011;52818;43.308;21.916;2024-03-22T06:52:38;32.70;;;20.70;;
55527;SDS011;52818;43.308;21.916;2024-03-22T06:54:38;31.10;;;18.90;;
55527;SDS011;52818;43.308;21.916;2024-03-22T06:56:38;32.50;;;19.90;;
55527;SDS011;52818;43.308;21.916;2024-03-22T06:58:38;32.00;;;19.00;;
55527;SDS011;52818;43.308;21.916;2024-03-22T07:00:38;31.50;;;18.30;;
55527;SDS011;52818;43.308;21.916;2024-03-22T07:02:38;28.00;;;;;
55527;SDS011;52818;43.308;21.916;2024-03-22T07:04:38;24.80;;;13.50;;
55527;SDS011;52818;43.308;21.916;2024-03-22T07:06:38;26.20;;;13.00;;
55527;SDS011;52818;43.308;21.916;2024-03-22T07:08:39;28.20;;;14.00;;
55527;SDS011;52818;43.308;21.916;2024-03-22T07:10:39;18.20;;;11.00;;
55527;SDS011;52818;43.308;21.916;2024-03-22T07:12:39;20.80;;;11.40;;
55527;SDS011;52818;43.308;21.916;2024-03-22T07:14:39;15.70;;;10.70;;
55527;SDS011;52818;43.308;21.916;2024-03-22T07:16:39;14.00;;;10.40;;
55527;SDS011;52818;43.308;21.916;2024-03-22T07:18:39;16.80;;;11.60;;
55527;SDS011;52818;43.308;21.916;2024-03-22T07:20:39;15.20;;;10.40;;
55527;SDS011;52818;43.308;21.916;2024-03-22T07:22:39;17.40;;;11.10;;
55527;SDS011;52818;43.308;21.916;2024-03-22T07:24:39;17.10;;;;;
55527;SDS011;52818;43.308;21.916;2024-03-22T07:26:40;18.60;;;;;
55527;SDS011;52818;43.308;21.916;2024-03-22T07:28:40;15.20;;;10.40;;
55527;SDS011;52818;43.308;21.916;2024-03-22T07:30:40;16.00;;;11.00;;
55527;SDS011;52818;43.308;21.916;2024-03-22T07:32:40;16.80;;;10.80;;
55527;SDS011;52818;43.308;21.916;2024-03-22T07:34:40;17.40;;;11.30;;
55527;SDS011;52818;43.308;21.916;2024-03-22T07:36:40;16.30;;;10.50;;
55527;SDS011;52818;43.308;21.916;2024-03-22T07:38:40;18.60;;;10.60;;
55527;SDS011;52818;43.308;21.916;2024-03-22T07:40:40;18.50;;;9.60;;
55527;SDS011;52818;43.308;21.916;2024-03-22T07:42:41;13.70;;;9.10;;
55527;SDS011;52818;43.308;21.916;2024-03-22T07:44:41;13.10;;;9.30;;
55527;SDS011;52818;43.308;21.916;2024-03-22T07:46:40;17.90;;;9.60;;
55527;SDS011;52818;43.308;21.916;2024-03-22T07:48:41;14.10;;;9.10;;
55527;SDS011;52818;43.308;21.916;2024-03-22T07:50:41;11.80;;;8.50;;
55527;SDS011;52818;43.308;21.916;2024-03-22T07:52:41;12.50;;;8.80;;
55527;SDS011;52818;43.308;21.916;2024-03-22T07:54:41;25.40;;;15.90;;
55527;SDS011;52818;43.308;21.916;2024-03-22T07:56:41;21.30;;;13.80;;
55527;SDS011;52818;43.308;21.916;2024-03-22T07:58:41;21.70;;;13.60;;
55527;SDS011;52818;43.308;21.916;2024-03-22T08:00:41;27.60;;;19.00;;
55527;SDS011;52818;43.308;21.916;2024-03-22T08:02:41;28.70;;;19.30;;
55527;SDS011;52818;43.308;21.916;2024-03-22T08:04:42;28.50;;;18.30;;
55527;SDS011;52818;43.308;21.916;2024-03-22T08:06:42;27.90;;;19.10;;
55527;SDS011;52818;43.308;21.916;2024-03-22T08:08:42;29.00;;;;;
55527;SDS011;52818;43.308;21.916;2024-03-22T08:10:42;27.70;;;18.30;;
55527;SDS011;52818;43.308;21.916;2024-03-22T08:12:42;29.00;;;19.10;;
55527;SDS011;52818;43.308;21.916;2024-03-22T08:14:42;28.60;;;18.60;;
55527;SDS011;52818;43.308;21.916;2024-03-22T08:16:42;28.70;;;18.80;;
55527;SDS011;52818;43.308;21.916;2024-03-22T08:18:42;22.00;;;16.00;;
55527;SDS011;52818;43.308;21.916;2024-03-22T08:20:42;21.70;;;14.30;;
55527;SDS011;52818;43.308;21.916;2024-03-22T08:22:43;20.70;;;15.20;;
55527;SDS011;52818;43.308;21.916;2024-03-22T08:24:43;22.30;;;15.00;;
55527;SDS011;52818;43.308;21.916;2024-03-22T08:26:43;21.90;;;15.50;;
55527;SDS011;52818;43.308;21.916;2024-03-22T08:28:43;23.80;;;15.70;;
55527;SDS011;52818;43.308;21.916;2024-03-22T08:30:43;25.00;;;16.70;;
55527;SDS011;52818;43.308;21.916;2024-03-22T08:32:43;22.70;;;16.30;;
55527;SDS011;52818;43.308;21.916;2024-03-22T08:34:43;23.30;;;16.10;;
55527;SDS011;52818;43.308;21.916;2024-03-22T08:36:43;23.70;;;16.00;;
55527;SDS011;52818;43.308;21.916;2024-03-22T08:38:43;20.00;;;14.30;;
55527;SDS011;52818;43.308;21.916;2024-03-22T08:40:43;20.30;;;14.70;;
55527;SDS011;52818;43.308;21.916;2024-03-22T08:42:44;21.20;;;15.70;;
55527;SDS011;52818;43.308;21.916;2024-03-22T08:44:44;20.60;;;14.20;;
55527;SDS011;52818;43.308;21.916;2024-03-22T08:46:44;19.60;;;13.40;;
55527;SDS011;52818;43.308;21.916;2024-03-22T08:48:44;17.40;;;11.70;;
55527;SDS011;52818;43.308;21.916;2024-03-22T08:50:44;15.30;;;10.90;;
55527;SDS011;52818;43.308;21.916;2024-03-22T08:52:44;16.20;;;11.50;;
55527;SDS011;52818;43.308;21.916;2024-03-22T08:54:44;17.20;;;11.30;;
55527;SDS011;52818;43.308;21.916;2024-03-22T08:56:44;14.70;;;10.70;;
55527;SDS011;52818;43.308;21.916;2024-03-22T08:58:44;15.80;;;;;
55527;SDS011;52818;43.308;21.916;2024-03-22T09:00:44;13.90;;;10.80;;
55527;SDS011;52818;43.308;21.916;2024-03-22T09:02:45;17.10;;;11.60;;
55527;SDS011;52818;43.308;21.916;2024-03-22T09:04:45;15.60;;;11.00;;
55527;SDS011;52818;43.308;21.916;2024-03-22T09:06:45;18.60;;;11.10;;
55527;SDS011;52818;43.308;21.916;2024-03-22T09:08:45;15.80;;;11.90;;
55527;SDS011;52818;43.308;21.916;2024-03-22T09:10:45;13.30;;;10.70;;
55527;SDS011;52818;43.308;21.916;2024-03-22T09:12:45;13.80;;;10.10;;
55527;SDS011;52818;43.308;21.916;2024-03-22T09:14:45;14.30;;;10.60;;
55527;SDS011;52818;43.308;21.916;2024-03-22T09:16:45;13.20;;;9.50;;
55527;SDS011;52818;43.308;21.916;2024-03-22T09:18:45;15.10;;;9.60;;
55527;SDS011;52818;43.308;21.916;2024-03-22T09:20:46;14.10;;;10.40;;
55527;SDS011;52818;43.308;21.916;2024-03-22T09:22:46;12.50;;;9.40;;
55527;SDS011;52818;43.308;21.916;2024-03-22T09:24:46;13.30;;;9.20;;
55527;SDS011;52818;43.308;21.916;2024-03-22T09:26:46;12.10;;;8.90;;
55527;SDS011;52818;43.308;21.916;2024-03-22T09:28:46;15.30;;;10.80;;
55527;SDS011;52818;43.308;21.916;2024-03-22T09:30:46;15.10;;;10.70;;
55527;SDS011;52818;43.308;21.916;2024-03-22T09:32:46;14.20;;;11.40;;
55527;SDS011;52818;43.308;21.916;2024-03-22T09:34:48;14.80;;;10.70;;
55527;SDS011;52818;43.308;21.916;2024-03-22T09:36:46;15.50;;;;;
55527;SDS011;52818;43.308;21.916;2024-03-22T09:38:46;13.80;;;10.50;;
55527;SDS011;52818;43.308;21.916;2024-03-22T09:40:46;15.40;;;;;
55527;SDS011;52818;43.308;21.916;2024-03-22T09:42:47;14.80;;;11.00;;
55527;SDS011;52818;43.308;21.916;2024-03-22T09:44:47;14.00;;;9.80;;
55527;SDS011;52818;43.308;21.916;2024-03-22T09:46:47;12.90;;;10.10;;
55527;SDS011;52818;43.308;21.916;2024-03-22T09:48:47;15.90;;;9.90;;
55527;SDS011;52818;43.308;21.916;2024-03-22T09:50:47;17.90;;;10.80;;
55527;SDS011;52818;43.308;21.916;2024-03-22T09:52:47;13.50;;;9.50;;
55527;SDS011;52818;43.308;21.916;2024-03-22T09:54:47;11.50;;;8.20;;
55527;SDS011;52818;43.308;21.916;2024-03-22T09:56:47;10.50;;;;;
55527;SDS011;52818;43.308;21.916;2024-03-22T09:58:47;13.20;;;8.80;;
55527;SDS011;52818;43.308;21.916;2024-03-22T10:00:47;12.80;;;;;
55527;SDS011;52818;43.308;21.916;2024-03-22T10:02:48;9.60;;;7.40;;
55527;SDS011;52818;43.308;21.916;2024-03-22T10:04:48;8.30;;;6.70;;
55527;SDS011;52818;43.308;21.916;2024-03-22T10:06:48;7.50;;;6.40;;
55527;SDS011;52818;43.308;21.916;2024-03-22T10:08:48;9.40;;;6.60;;
55527;SDS011;52818;43.308;21.916;2024-03-22T10:10:48;9.10;;;6.20;;
55527;SDS011;52818;43.308;21.916;2024-03-22T10:12:48;8.70;;;6.60;;
55527;SDS011;52818;43.308;21.916;2024-03-22T10:14:48;8.20;;;6.10;;
55527;SDS011;52818;43.308;21.916;2024-03-22T10:16:48;8.30;;;;;
55527;SDS011;52818;43.308;21.916;2024-03-22T10:18:48;7.40;;;5.20;;
55527;SDS011;52818;43.308;21.916;2024-03-22T10:20:58;8.70;;;5.90;;
55527;SDS011;52818;43.308;21.916;2024-03-22T10:22:49;10.10;;;6.00;;
55527;SDS011;52818;43.308;21.916;2024-03-22T10:25:19;7.70;;;5.90;;
55527;SDS011;52818;43.308;21.916;2024-03-22T10:27:19;;;;5.50;;
55527;SDS011;52818;43.308;21.916;2024-03-22T10:29:19;7.50;;;5.80;;
55527;SDS011;52818;43.308;21.916;2024-03-22T10:31:19;9.20;;;6.30;;
55527;SDS011;52818;43.308;21.916;2024-03-22T10:33:19;11.90;;;7.00;;
55527;SDS011;52818;43.308;21.916;2024-03-22T10:35:20;10.40;;;7.10;;
55527;SDS011;52818;43.308;21.916;2024-03-22T10:37:19;8.70;;;6.00;;
55527;SDS011;52818;43.308;21.916;2024-03-22T10:39:19;9.70;;;6.20;;
55527;SDS011;52818;43.308;21.916;2024-03-22T10:41:19;7.10;;;5.50;;
55527;SDS011;52818;43.308;21.916;2024-03-22T10:43:19;7.90;;;6.40;;
55527;SDS011;52818;43.308;21.916;2024-03-22T10:45:19;9.20;;;6.10;;
55527;SDS011;52818;43.308;21.916;2024-03-22T10:47:20;7.20;;;5.70;;
55527;SDS011;52818;43.308;21.916;2024-03-22T10:49:20;7.80;;;5.60;;
55527;SDS011;52818;43.308;21.916;2024-03-22T10:51:20;7.10;;;5.70;;
55527;SDS011;52818;43.308;21.916;2024-03-22T10:53:21;6.90;;;5.30;;
55527;SDS011;52818;43.308;21.916;2024-03-22T10:55:21;7.50;;;5.00;;
55527;SDS011;52818;43.308;21.916;2024-03-22T10:57:20;6.90;;;5.20;;
55527;SDS011;52818;43.308;21.916;2024-03-22T10:59:21;6.40;;;5.10;;
55527;SDS011;52818;43.308;21.916;2024-03-22T11:01:22;9.00;;;5.60;;
55527;SDS011;52818;43.308;21.916;2024-03-22T11:03:21;9.60;;;6.20;;
55527;SDS011;52818;43.308;21.916;2024-03-22T11:05:21;10.90;;;7.60;;
55527;SDS011;52818;43.308;21.916;2024-03-22T11:07:21;6.80;;;5.60;;
55527;SDS011;52818;43.308;21.916;2024-03-22T11:09:21;7.20;;;5.70;;
55527;SDS011;52818;43.308;21.916;2024-03-22T11:11:21;8.00;;;5.80;;
55527;SDS011;52818;43.308;21.916;2024-03-22T11:13:21;14.70;;;9.80;;
55527;SDS011;52818;43.308;21.916;2024-03-22T11:15:21;10.50;;;7.60;;
55527;SDS011;52818;43.308;21.916;2024-03-22T11:17:21;8.70;;;6.60;;
55527;SDS011;52818;43.308;21.916;2024-03-22T11:19:21;8.20;;;5.60;;
55527;SDS011;52818;43.308;21.916;2024-03-22T11:21:21;7.10;;;5.40;;
55527;SDS011;52818;43.308;21.916;2024-03-22T11:23:21;8.00;;;6.70;;
55527;SDS011;52818;43.308;21.916;2024-03-22T11:25:22;6.90;;;5.60;;
55527;SDS011;52818;43.308;21.916;2024-03-22T11:27:22;6.70;;;5.70;;
55527;SDS011;52818;43.308;21.916;2024-03-22T11:29:22;7.00;;;5.10;;
55527;SDS011;52818;43.308;21.916;2024-03-22T11:31:22;7.50;;;5.00;;
55527;SDS011;52818;43.308;21.916;2024-03-22T11:33:22;;;;5.50;;
55527;SDS011;52818;43.308;21.916;2024-03-22T11:35:22;6.30;;;;;
55527;SDS011;52818;43.308;21.916;2024-03-22T11:37:22;6.50;;;5.00;;
55527;SDS011;52818;43.308;21.916;2024-03-22T11:39:22;7.00;;;5.10;;
55527;SDS011;52818;43.308;21.916;2024-03-22T11:41:23;6.70;;;5.20;;
55527;SDS011;52818;43.308;21.916;2024-03-22T11:43:22;6.00;;;;;